Pilot Mound, Minnesota
Current Conditions -  °F | °C
As of 11:35 PM on Sunday 21 Dec 2014 (Local Time) from KFKA Reporting Station
Haze Haze  
Wind Chill: 24°   Ceiling: 400
Heat Index: 35°   Visibility: 2.5mi
Dew Point: 33°   Wind: 17mph
Humidity: 95%   Direction: 160°SSE
Pressure: 29.78"   Gusts: NA
Location:  43.8233°N, 92.1103°W
Report Text: KFKA 220535Z AUTO 16015KT 2 1/2SM BR OVC004 02/01 A2978 RMK AO2 T00150008
Loading
Personal Weather Stations






























Interactive Weather Map New forecast layout! Learn more

10-Day Weather Forecast

Advertisements
Track Severe Weather on mobile